Time;durP1;ratioP1;P1;durP2;ratioP2;P2;SDS_P1;SDS_P2;PMS_P1;PMS_P2;Temp;Humidity;BMP_temperature;BMP_pressure;BME280_temperature;BME280_humidity;BME280_pressure;Samples;Min_cycle;Max_cycle;Signal;HPM_P1;HPM_P2
2022/05/16 00:02:12;;;;;;;0.50;0.50;;;;;;;7.82;70.48;98048.31;5014048;28;20058;-81
2022/05/16 00:04:46;;;;;;;0.50;0.50;;;;;;;7.75;70.62;98034.25;5014147;28;20386;-81
2022/05/16 00:07:13;;;;;;;0.60;0.60;;;;;;;7.87;70.49;98062.88;5013248;28;20041;-81
2022/05/16 00:09:40;;;;;;;0.50;0.50;;;;;;;7.85;70.69;98057.75;5014475;28;20049;-82
2022/05/16 00:12:08;;;;;;;0.50;0.50;;;;;;;7.75;70.43;98042.31;5012987;28;20049;-80
2022/05/16 00:14:37;;;;;;;0.50;0.50;;;;;;;7.83;70.66;98054.50;5013979;28;20516;-80
2022/05/16 00:17:04;;;;;;;0.50;0.50;;;;;;;7.88;70.52;98062.63;5012800;28;20057;-81
2022/05/16 00:19:31;;;;;;;0.50;0.50;;;;;;;7.70;70.09;98039.56;5013932;28;20045;-81
2022/05/16 00:21:59;;;;;;;0.50;0.50;;;;;;;7.79;70.72;98058.75;4996469;28;20053;-80
2022/05/16 00:24:28;;;;;;;0.50;0.50;;;;;;;7.82;70.58;98058.22;5012473;28;20505;-82
2022/05/16 00:26:57;;;;;;;0.50;0.50;;;;;;;7.71;70.77;98040.38;4996495;28;20050;-81
2022/05/16 00:29:25;;;;;;;0.50;0.50;;;;;;;7.69;70.70;98058.63;5012007;28;20049;-80
2022/05/16 00:31:54;;;;;;;0.50;0.50;;;;;;;7.55;70.71;98034.00;5013589;28;20050;-81
2022/05/16 00:34:22;;;;;;;0.60;0.60;;;;;;;7.54;71.40;98040.41;5013276;28;20053;-80
2022/05/16 00:36:50;;;;;;;0.50;0.50;;;;;;;7.61;71.66;98062.53;5013302;28;20127;-81
2022/05/16 00:39:18;;;;;;;0.50;0.50;;;;;;;7.40;71.53;98034.59;5012149;28;20053;-81
2022/05/16 00:41:47;;;;;;;0.50;0.50;;;;;;;7.46;71.60;98063.13;5013383;28;20054;-82
2022/05/16 00:44:15;;;;;;;0.50;0.50;;;;;;;7.43;71.79;98060.16;5013025;28;20061;-82
2022/05/16 00:46:42;;;;;;;0.50;0.50;;;;;;;7.30;72.08;98051.38;5011769;28;20045;-82
2022/05/16 00:49:17;;;;;;;0.60;0.60;;;;;;;7.38;72.58;98064.38;5011568;28;20113;-82
2022/05/16 00:51:49;;;;;;;0.50;0.50;;;;;;;7.41;72.12;98073.00;5013092;28;20050;-81
2022/05/16 00:54:43;;;;;;;0.50;0.50;;;;;;;7.23;72.19;98058.78;5011536;28;20196;-81
2022/05/16 00:57:14;;;;;;;0.60;0.60;;;;;;;7.14;71.86;98041.47;5011627;28;20054;-81
2022/05/16 01:00:05;;;;;;;0.60;0.60;;;;;;;7.21;71.47;98050.16;5011584;28;20425;-81
2022/05/16 01:05:23;;;;;;;0.50;0.50;;;;;;;7.32;70.97;98070.75;5011754;28;20078;-82
2022/05/16 01:07:50;;;;;;;0.50;0.50;;;;;;;7.35;70.31;98072.94;5013206;28;20053;-80
2022/05/16 01:10:20;;;;;;;0.60;0.60;;;;;;;7.35;70.02;98074.81;5012986;28;20070;-80
2022/05/16 01:12:50;;;;;;;0.60;0.60;;;;;;;7.26;69.83;98063.66;5011948;28;20054;-81
2022/05/16 01:15:31;;;;;;;0.60;0.60;;;;;;;7.32;69.78;98076.09;5012750;28;20042;-79
2022/05/16 01:17:58;;;;;;;0.50;0.50;;;;;;;7.20;70.06;98064.66;5012931;28;20064;-82
2022/05/16 01:20:47;;;;;;;0.50;0.50;;;;;;;7.24;69.82;98078.38;5011895;28;20064;-82
2022/05/16 01:23:16;;;;;;;0.52;0.52;;;;;;;7.14;69.75;98062.94;5011297;28;20054;-82
2022/05/16 01:25:43;;;;;;;0.50;0.50;;;;;;;7.15;69.94;98069.94;5011642;28;20081;-81
2022/05/16 01:28:10;;;;;;;0.60;0.60;;;;;;;7.21;70.26;98089.59;5012577;28;20508;-81
2022/05/16 01:30:46;;;;;;;0.50;0.50;;;;;;;7.07;70.73;98071.16;5012578;28;20405;-80
2022/05/16 01:33:15;;;;;;;0.50;0.50;;;;;;;7.10;70.93;98094.00;5012451;28;20493;-82
2022/05/16 01:35:42;;;;;;;0.50;0.50;;;;;;;7.09;71.25;98087.00;5012691;28;20050;-81
2022/05/16 01:38:23;;;;;;;0.60;0.60;;;;;;;6.92;71.64;98082.47;5012579;28;20096;-82
2022/05/16 01:40:59;;;;;;;0.60;0.60;;;;;;;6.87;72.37;98085.06;5012517;28;20500;-81
2022/05/16 01:43:29;;;;;;;0.60;0.60;;;;;;;6.92;72.65;98095.88;5012066;28;20104;-81
2022/05/16 01:45:56;;;;;;;0.60;0.60;;;;;;;6.82;72.80;98084.97;5011347;28;20053;-81
2022/05/16 01:48:24;;;;;;;0.55;0.55;;;;;;;6.76;72.47;98079.75;5012253;28;20069;-81
2022/05/16 01:50:58;;;;;;;0.60;0.60;;;;;;;6.76;72.58;98085.13;5012377;28;20411;-80
2022/05/16 01:53:25;;;;;;;0.50;0.50;;;;;;;6.77;72.73;98082.19;5010695;28;20103;-81
2022/05/16 01:55:52;;;;;;;0.60;0.60;;;;;;;6.69;72.59;98087.97;5010772;28;20050;-81
2022/05/16 01:58:19;;;;;;;0.60;0.60;;;;;;;6.80;72.81;98105.84;5010735;28;20042;-81
2022/05/16 02:00:47;;;;;;;0.60;0.60;;;;;;;6.82;72.74;98116.34;5010724;28;20144;-80
2022/05/16 02:03:14;;;;;;;0.60;0.60;;;;;;;6.74;72.89;98109.50;5010746;28;20054;-81
2022/05/16 02:05:43;;;;;;;0.60;0.60;;;;;;;6.70;72.79;98103.00;5011337;28;20128;-81
2022/05/16 02:08:11;;;;;;;0.50;0.50;;;;;;;6.76;72.92;98126.19;5010362;28;20054;-81
2022/05/16 02:10:39;;;;;;;0.50;0.50;;;;;;;6.71;73.14;98116.16;5012050;28;20116;-82
2022/05/16 02:13:08;;;;;;;0.60;0.60;;;;;;;6.54;73.11;98095.75;5011845;28;20073;-81
2022/05/16 02:15:36;;;;;;;0.50;0.50;;;;;;;6.53;73.13;98105.63;5011916;28;20141;-82
2022/05/16 02:18:04;;;;;;;0.60;0.60;;;;;;;6.47;73.16;98112.75;5011966;28;20042;-82
2022/05/16 02:20:32;;;;;;;0.60;0.60;;;;;;;6.54;73.22;98115.31;5011914;28;20077;-81
2022/05/16 02:25:47;;;;;;;0.60;0.60;;;;;;;6.46;73.00;98110.34;5010845;28;20049;-81
2022/05/16 02:28:16;;;;;;;0.60;0.60;;;;;;;6.51;73.04;98113.13;5011453;28;20050;-81
2022/05/16 02:30:51;;;;;;;0.60;0.60;;;;;;;6.48;72.86;98116.25;5010688;28;20049;-81
2022/05/16 02:33:19;;;;;;;0.60;0.60;;;;;;;6.39;72.67;98109.66;5010038;28;20046;-81
2022/05/16 02:35:47;;;;;;;0.50;0.50;;;;;;;6.35;72.88;98106.63;5010567;28;20060;-81
2022/05/16 02:38:16;;;;;;;0.60;0.60;;;;;;;6.36;72.58;98113.63;4994088;28;20421;-81
2022/05/16 02:40:43;;;;;;;0.60;0.60;;;;;;;6.39;72.60;98126.56;5010443;28;20563;-81
2022/05/16 02:43:10;;;;;;;0.60;0.60;;;;;;;6.20;72.88;98104.50;5008904;28;20053;-82
2022/05/16 02:45:38;;;;;;;0.60;0.60;;;;;;;6.24;72.79;98099.47;5011596;28;20058;-82
2022/05/16 02:48:06;;;;;;;0.60;0.60;;;;;;;6.32;72.68;98123.19;5010736;28;20054;-83
2022/05/16 02:50:33;;;;;;;0.50;0.50;;;;;;;6.34;72.40;98120.28;5011724;28;20049;-83
2022/05/16 02:53:00;;;;;;;0.60;0.60;;;;;;;6.40;71.99;98125.50;4994660;28;20528;-82
2022/05/16 02:55:29;;;;;;;0.50;0.50;;;;;;;6.53;71.20;98139.66;5011614;28;20484;-81
2022/05/16 02:57:56;;;;;;;0.50;0.50;;;;;;;6.38;71.28;98124.94;5011389;28;20464;-81
2022/05/16 03:00:23;;;;;;;0.60;0.60;;;;;;;6.32;71.66;98128.56;5009895;28;20053;-81
2022/05/16 03:02:50;;;;;;;0.50;0.50;;;;;;;6.32;71.69;98128.56;5015097;28;20588;-84
2022/05/16 03:05:19;;;;;;;0.60;0.60;;;;;;;6.46;71.25;98137.97;5014164;28;20405;-82
2022/05/16 03:07:48;;;;;;;0.50;0.50;;;;;;;6.36;71.76;98131.59;5013366;28;20058;-82
2022/05/16 03:10:16;;;;;;;0.60;0.60;;;;;;;6.37;70.71;98134.03;5015672;28;20505;-83
2022/05/16 03:12:45;;;;;;;0.60;0.60;;;;;;;6.49;70.59;98142.84;5014503;28;20424;-82
2022/05/16 03:15:14;;;;;;;0.60;0.60;;;;;;;6.51;70.81;98150.66;5015556;28;20046;-83
2022/05/16 03:17:42;;;;;;;0.60;0.60;;;;;;;6.49;70.38;98142.84;5014603;28;20045;-83
2022/05/16 03:20:12;;;;;;;0.60;0.60;;;;;;;6.55;70.06;98140.25;4997503;28;20085;-82
2022/05/16 03:22:39;;;;;;;0.50;0.50;;;;;;;6.40;70.04;98132.72;5014980;28;20108;-81
2022/05/16 03:25:07;;;;;;;0.60;0.60;;;;;;;6.38;70.25;98130.31;4997376;28;20054;-82
2022/05/16 03:27:37;;;;;;;0.52;0.52;;;;;;;6.43;70.14;98138.44;5013562;28;20049;-82
2022/05/16 03:30:07;;;;;;;0.60;0.60;;;;;;;6.58;69.76;98153.16;5014964;28;20448;-83
2022/05/16 03:32:34;;;;;;;0.50;0.50;;;;;;;6.61;69.51;98155.38;5010886;28;20145;-83
2022/05/16 03:35:01;;;;;;;0.50;0.50;;;;;;;6.77;69.25;98146.56;5013834;28;20045;-82
2022/05/16 03:37:29;;;;;;;0.60;0.60;;;;;;;6.93;68.77;98153.00;4997039;28;20058;-82
2022/05/16 03:42:41;;;;;;;0.60;0.60;;;;;;;7.08;67.45;98128.31;5014545;28;20069;-84
2022/05/16 03:45:10;;;;;;;0.60;0.60;;;;;;;7.36;67.00;98149.69;5014635;28;20050;-83
2022/05/16 03:47:37;;;;;;;0.60;0.60;;;;;;;7.45;66.17;98144.75;5008420;28;20399;-83
2022/05/16 03:50:05;;;;;;;0.57;0.57;;;;;;;7.54;65.63;98147.81;5013051;28;20069;-86
2022/05/16 03:52:38;;;;;;;0.60;0.60;;;;;;;7.68;65.30;98153.69;5014591;28;20045;-84
2022/05/16 03:55:14;;;;;;;0.60;0.60;;;;;;;7.73;65.66;98135.75;5010431;28;20124;-81
2022/05/16 03:57:43;;;;;;;0.60;0.60;;;;;;;7.94;64.29;98163.72;5013761;28;20092;-81
2022/05/16 04:00:13;;;;;;;0.70;0.70;;;;;;;8.04;64.22;98154.97;5014663;28;20523;-82
2022/05/16 04:02:41;;;;;;;0.50;0.50;;;;;;;8.07;63.97;98150.97;5011866;28;20080;-84
2022/05/16 04:05:10;;;;;;;0.70;0.70;;;;;;;8.12;64.06;98133.03;5017057;28;20041;-86
2022/05/16 04:07:37;;;;;;;0.70;0.70;;;;;;;8.20;62.98;98146.06;5013023;28;20046;-83
2022/05/16 04:10:05;;;;;;;0.60;0.60;;;;;;;8.23;62.67;98134.81;5015881;28;20050;-85
2022/05/16 04:12:32;;;;;;;0.60;0.60;;;;;;;8.41;61.73;98151.72;5014616;28;20494;-85
2022/05/16 04:14:59;;;;;;;0.60;0.60;;;;;;;8.39;61.74;98153.81;5010824;28;20041;-84
2022/05/16 04:17:26;;;;;;;0.60;0.60;;;;;;;8.42;61.65;98156.81;5009791;28;20077;-83
2022/05/16 04:19:54;;;;;;;0.50;0.50;;;;;;;8.39;61.41;98151.13;4668450;28;10000370;-82
2022/05/16 04:22:21;;;;;;;0.60;0.60;;;;;;;8.54;61.12;98150.53;5006303;28;20133;-83
2022/05/16 04:24:48;;;;;;;0.60;0.60;;;;;;;8.59;60.61;98154.06;5011391;28;20050;-84
2022/05/16 04:27:15;;;;;;;0.60;0.60;;;;;;;8.65;60.49;98161.13;5011695;28;20046;-85
2022/05/16 04:29:43;;;;;;;0.60;0.60;;;;;;;8.75;60.63;98162.31;5027346;28;20412;-84
2022/05/16 04:32:10;;;;;;;0.60;0.60;;;;;;;8.77;60.28;98139.47;5010398;28;20440;-82
2022/05/16 04:34:37;;;;;;;0.60;0.60;;;;;;;8.92;59.72;98157.63;5008699;28;20092;-83
2022/05/16 04:37:04;;;;;;;0.60;0.60;;;;;;;8.89;59.31;98145.50;5014525;28;20046;-82
2022/05/16 04:39:32;;;;;;;0.60;0.60;;;;;;;8.98;59.07;98155.81;5013956;28;20412;-82
2022/05/16 04:44:45;;;;;;;0.60;0.60;;;;;;;9.06;58.96;98158.84;5008746;28;20102;-82
2022/05/16 04:47:12;;;;;;;0.63;0.63;;;;;;;9.11;59.01;98153.53;5009615;28;20053;-85
2022/05/16 04:49:40;;;;;;;0.60;0.60;;;;;;;9.20;59.08;98153.03;5013515;28;20064;-83
2022/05/16 04:52:07;;;;;;;0.60;0.60;;;;;;;9.28;58.08;98156.06;5029287;28;20048;-84
2022/05/16 04:54:34;;;;;;;0.70;0.70;;;;;;;9.24;58.09;98133.44;5027874;28;20094;-81
2022/05/16 04:57:02;;;;;;;0.60;0.60;;;;;;;9.47;58.09;98159.19;5028123;28;20103;-82
2022/05/16 04:59:29;;;;;;;0.60;0.60;;;;;;;9.43;56.87;98147.31;5011580;28;20079;-82
2022/05/16 05:01:56;;;;;;;0.60;0.60;;;;;;;9.48;56.56;98155.41;5015919;28;20137;-83
2022/05/16 05:04:23;;;;;;;0.60;0.60;;;;;;;9.60;56.37;98151.75;4994886;28;20141;-83
2022/05/16 05:06:50;;;;;;;0.68;0.68;;;;;;;9.60;56.15;98133.69;5027554;28;20048;-82
2022/05/16 05:09:18;;;;;;;0.60;0.60;;;;;;;9.90;55.64;98141.16;5016020;28;20053;-82
2022/05/16 05:14:34;;;;;;;0.60;0.60;;;;;;;9.92;54.78;98133.59;5016009;28;20046;-81
2022/05/16 05:17:06;;;;;;;0.60;0.60;;;;;;;10.21;54.28;98152.09;5006370;28;20053;-81
2022/05/16 05:19:35;;;;;;;0.60;0.60;;;;;;;10.29;54.05;98138.13;5022986;28;20099;-81
2022/05/16 05:22:03;;;;;;;0.60;0.60;;;;;;;10.45;54.19;98140.88;5010912;28;20045;-81
2022/05/16 05:24:31;;;;;;;0.70;0.70;;;;;;;10.63;53.63;98141.22;5017313;28;20056;-82
2022/05/16 05:26:58;;;;;;;0.60;0.60;;;;;;;11.05;51.95;98131.31;5004932;28;20145;-80
2022/05/16 05:29:25;;;;;;;0.60;0.60;;;;;;;10.94;51.30;98121.56;4990749;28;20050;-81
2022/05/16 05:31:52;;;;;;;0.60;0.60;;;;;;;10.65;52.23;98124.75;5008710;28;20081;-83
2022/05/16 05:34:20;;;;;;;0.70;0.70;;;;;;;10.88;52.44;98133.44;5005946;28;20056;-83
2022/05/16 05:36:47;;;;;;;0.60;0.60;;;;;;;11.15;51.48;98133.22;5006963;28;20057;-82
2022/05/16 05:39:16;;;;;;;0.57;0.57;;;;;;;11.35;50.28;98145.91;5023318;28;20061;-83
2022/05/16 05:41:44;;;;;;;0.60;0.60;;;;;;;11.24;49.95;98145.91;5008286;28;20465;-81
2022/05/16 05:44:12;;;;;;;0.60;0.60;;;;;;;11.33;50.18;98139.97;5008036;28;20056;-80
2022/05/16 05:46:40;;;;;;;0.60;0.60;;;;;;;11.42;50.00;98124.81;5011002;28;20057;-82
2022/05/16 05:49:09;;;;;;;0.60;0.60;;;;;;;11.49;49.33;98128.06;5008872;28;20045;-82
2022/05/16 05:51:36;;;;;;;0.60;0.60;;;;;;;11.61;48.70;98147.50;5011542;28;20270;-83
2022/05/16 05:54:04;;;;;;;0.60;0.60;;;;;;;11.24;48.79;98118.91;5009594;28;20045;-80
2022/05/16 05:56:33;;;;;;;0.70;0.70;;;;;;;11.65;48.86;98145.88;5027744;28;20469;-82
2022/05/16 05:59:00;;;;;;;0.60;0.60;;;;;;;11.83;48.50;98151.81;5027943;28;20041;-82
2022/05/16 06:01:27;;;;;;;0.55;0.55;;;;;;;11.55;48.36;98131.59;5025054;28;20053;-82
2022/05/16 06:03:55;;;;;;;0.50;0.50;;;;;;;11.49;48.61;98137.00;5015622;28;20054;-82
2022/05/16 06:06:22;;;;;;;0.50;0.50;;;;;;;11.31;48.69;98125.91;5027595;28;20080;-80
2022/05/16 06:08:49;;;;;;;0.50;0.50;;;;;;;11.12;49.58;98123.75;5026389;28;20049;-83
2022/05/16 06:11:17;;;;;;;0.50;0.50;;;;;;;11.10;50.15;98144.00;5026476;28;20045;-83
2022/05/16 06:13:44;;;;;;;0.60;0.60;;;;;;;11.02;50.20;98142.66;5019338;28;20536;-82
2022/05/16 06:16:11;;;;;;;0.52;0.52;;;;;;;11.13;50.63;98152.38;5017342;28;20065;-81
2022/05/16 06:18:39;;;;;;;0.60;0.60;;;;;;;11.25;49.24;98138.63;5004293;28;20049;-81
2022/05/16 06:21:08;;;;;;;0.60;0.60;;;;;;;11.47;48.92;98158.06;4987014;28;20046;-82
2022/05/16 06:23:35;;;;;;;0.55;0.55;;;;;;;11.47;49.38;98147.25;5008562;28;20472;-82
2022/05/16 06:26:03;;;;;;;0.57;0.57;;;;;;;11.45;48.69;98143.22;5015058;28;20049;-82
2022/05/16 06:28:32;;;;;;;0.60;0.60;;;;;;;11.44;49.09;98125.34;5013214;28;20049;-83
2022/05/16 06:30:59;;;;;;;0.60;0.60;;;;;;;11.86;48.07;98146.69;4989549;28;20045;-81
2022/05/16 06:33:28;;;;;;;0.50;0.50;;;;;;;11.77;47.76;98159.09;5004449;28;20058;-82
2022/05/16 06:35:57;;;;;;;0.50;0.50;;;;;;;11.58;48.54;98156.16;5022734;28;20049;-83
2022/05/16 06:38:33;;;;;;;0.50;0.50;;;;;;;11.34;48.23;98130.75;5026627;28;20065;-82
2022/05/16 06:41:01;;;;;;;0.60;0.60;;;;;;;11.18;48.53;98138.06;5028001;28;20093;-82
2022/05/16 06:43:29;;;;;;;0.60;0.60;;;;;;;11.36;47.81;98151.03;5023983;28;20045;-81
2022/05/16 06:45:56;;;;;;;0.55;0.55;;;;;;;11.40;48.06;98143.22;5027159;28;20124;-82
2022/05/16 06:48:24;;;;;;;0.50;0.50;;;;;;;11.74;46.77;98153.44;5025306;28;20219;-82
2022/05/16 06:50:52;;;;;;;0.50;0.50;;;;;;;11.72;46.55;98151.00;5023583;28;20049;-82
2022/05/16 06:53:22;;;;;;;0.60;0.60;;;;;;;11.78;45.90;98152.63;5025402;28;20084;-80
2022/05/16 06:55:49;;;;;;;0.60;0.60;;;;;;;11.95;46.17;98154.22;5025317;28;20065;-82
2022/05/16 06:58:16;;;;;;;0.60;0.60;;;;;;;12.23;45.68;98158.19;5026304;28;20049;-82
2022/05/16 07:00:44;;;;;;;0.60;0.60;;;;;;;12.11;45.83;98143.09;5016694;28;20042;-81
2022/05/16 07:03:12;;;;;;;0.50;0.50;;;;;;;11.95;44.54;98155.06;5004888;28;20046;-83
2022/05/16 07:05:46;;;;;;;0.60;0.60;;;;;;;11.46;45.33;98115.09;5006922;28;20145;-83
2022/05/16 07:08:15;;;;;;;0.60;0.60;;;;;;;11.57;45.62;98140.22;5006933;28;20046;-83
2022/05/16 07:10:42;;;;;;;0.60;0.60;;;;;;;11.83;44.05;98143.69;5005781;28;20416;-82
2022/05/16 07:13:10;;;;;;;0.50;0.50;;;;;;;11.99;43.92;98158.81;5008274;28;20057;-82
2022/05/16 07:15:37;;;;;;;0.60;0.60;;;;;;;12.09;43.54;98139.88;5006269;28;20057;-82
2022/05/16 07:18:05;;;;;;;0.60;0.60;;;;;;;12.16;43.41;98155.00;5022188;28;20042;-82
2022/05/16 07:20:37;;;;;;;0.60;0.60;;;;;;;12.48;43.15;98143.78;4974856;28;20461;-80
2022/05/16 07:23:05;;;;;;;0.60;0.60;;;;;;;12.50;43.31;98164.06;4985792;28;20503;-84
2022/05/16 07:27:56;;;;;;;0.60;0.60;;;;;;;12.33;43.60;98148.19;5005705;28;20395;-82
2022/05/16 07:28:21;;;;;;;0.77;0.77;;;;;;;12.58;43.91;98152.66;5005928;28;20056;-81
2022/05/16 07:30:49;;;;;;;0.60;0.60;;;;;;;13.11;42.87;98141.22;5011263;28;20042;-82
2022/05/16 07:33:18;;;;;;;0.60;0.60;;;;;;;13.08;42.54;98151.84;5010132;28;20066;-82
2022/05/16 07:35:50;;;;;;;0.60;0.60;;;;;;;12.77;41.60;98152.81;5014844;28;20108;-82
2022/05/16 07:38:19;;;;;;;0.80;0.80;;;;;;;12.77;41.96;98152.03;5000731;28;20552;-82
2022/05/16 07:40:46;;;;;;;0.70;0.70;;;;;;;13.10;41.47;98126.06;5005485;28;20452;-79
2022/05/16 07:43:13;;;;;;;0.50;0.50;;;;;;;13.18;41.69;98157.19;5015494;28;20080;-79
2022/05/16 07:45:40;;;;;;;0.50;0.50;;;;;;;12.61;42.07;98139.66;5002939;28;20472;-83
2022/05/16 07:48:08;;;;;;;0.50;0.50;;;;;;;11.94;43.43;98137.19;5006411;28;20531;-83
2022/05/16 07:50:36;;;;;;;0.50;0.50;;;;;;;11.77;44.29;98161.00;4992894;28;20038;-82
2022/05/16 07:53:05;;;;;;;0.52;0.52;;;;;;;11.67;44.77;98168.06;5010569;28;20073;-82
2022/05/16 07:55:32;;;;;;;0.50;0.50;;;;;;;11.65;44.43;98147.78;5021326;28;20045;-82
2022/05/16 07:57:59;;;;;;;0.50;0.50;;;;;;;11.54;44.66;98163.19;5017547;28;20532;-82
2022/05/16 08:00:26;;;;;;;0.60;0.60;;;;;;;11.47;44.55;98144.56;5013032;28;20076;-82
2022/05/16 08:02:54;;;;;;;0.50;0.50;;;;;;;11.27;44.70;98148.06;5012968;28;20072;-82
2022/05/16 08:05:22;;;;;;;0.50;0.50;;;;;;;11.23;45.35;98163.19;5024008;28;20053;-83
2022/05/16 08:10:39;;;;;;;0.60;0.60;;;;;;;11.44;45.64;98164.00;5006538;28;20180;-83
2022/05/16 08:13:09;;;;;;;0.50;0.50;;;;;;;11.62;45.00;98149.13;5008508;28;20049;-82
2022/05/16 08:15:38;;;;;;;0.50;0.50;;;;;;;11.71;44.95;98152.91;5012036;28;20053;-82
2022/05/16 08:18:06;;;;;;;0.60;0.60;;;;;;;11.85;45.29;98152.31;5015539;28;20061;-81
2022/05/16 08:20:35;;;;;;;0.60;0.60;;;;;;;12.44;43.65;98142.72;5005400;28;20057;-83
2022/05/16 08:23:02;;;;;;;0.77;0.77;;;;;;;13.15;42.13;98150.41;5009518;28;20042;-81
2022/05/16 08:25:29;;;;;;;0.50;0.50;;;;;;;13.27;41.13;98119.47;5011540;28;20117;-83
2022/05/16 08:27:56;;;;;;;0.50;0.50;;;;;;;12.89;41.93;98151.69;5018625;28;20077;-83
2022/05/16 08:30:24;;;;;;;0.50;0.50;;;;;;;12.84;41.94;98146.28;5031112;28;20123;-81
2022/05/16 08:32:51;;;;;;;0.50;0.50;;;;;;;12.82;42.12;98140.38;5032697;28;20217;-82
2022/05/16 08:35:20;;;;;;;0.60;0.60;;;;;;;12.98;41.51;98131.03;5032804;28;20053;-81
2022/05/16 08:41:03;;;;;;;0.50;0.50;;;;;;;12.75;41.79;98149.59;5031958;28;20053;-81
2022/05/16 08:43:43;;;;;;;0.60;0.60;;;;;;;12.36;42.50;98119.75;5012165;28;20057;-82
2022/05/16 08:46:35;;;;;;;0.60;0.60;;;;;;;12.42;42.06;98139.47;5011187;28;20104;-81
2022/05/16 08:49:41;;;;;;;1.00;1.00;;;;;;;14.03;38.53;98135.03;5022464;28;20132;-80
2022/05/16 08:52:17;;;;;;;0.50;0.50;;;;;;;13.10;39.81;98128.00;4956634;28;20074;-81
2022/05/16 08:54:49;;;;;;;1.00;1.00;;;;;;;13.31;39.97;98144.91;4933275;29;20482;-80
2022/05/16 08:57:40;;;;;;;1.00;1.00;;;;;;;14.63;37.72;98141.94;4935145;28;20070;-80
2022/05/16 09:00:25;;;;;;;0.90;0.90;;;;;;;14.05;37.80;98129.28;4943746;28;20151;-80
2022/05/16 09:02:54;;;;;;;0.70;0.70;;;;;;;14.55;37.04;98127.09;4951520;29;20059;-78
2022/05/16 09:05:28;;;;;;;0.60;0.60;;;;;;;14.07;38.00;98125.19;4935369;29;20055;-79
2022/05/16 09:07:57;;;;;;;0.70;0.70;;;;;;;14.28;38.31;98114.94;4951632;29;20467;-79
2022/05/16 09:10:44;;;;;;;0.60;0.60;;;;;;;14.36;37.23;98127.06;4935018;28;20122;-79
2022/05/16 09:13:19;;;;;;;0.60;0.60;;;;;;;14.58;37.82;98134.66;4944492;28;20054;-78
2022/05/16 09:16:10;;;;;;;0.60;0.60;;;;;;;14.55;37.37;98118.94;4953906;28;20059;-79
2022/05/16 09:19:02;;;;;;;0.90;0.90;;;;;;;14.97;35.66;98098.28;4964218;28;20496;-78
2022/05/16 09:21:38;;;;;;;0.60;0.60;;;;;;;14.74;35.72;98136.06;4958122;28;20541;-80
2022/05/16 09:24:12;;;;;;;0.70;0.70;;;;;;;14.68;35.81;98120.94;4954198;28;20111;-81
2022/05/16 09:26:56;;;;;;;0.75;0.75;;;;;;;14.86;35.69;98118.53;4935288;28;20059;-81
2022/05/16 09:29:32;;;;;;;0.68;0.68;;;;;;;14.33;35.38;98133.06;4988069;28;20056;-80
2022/05/16 09:32:26;;;;;;;0.63;0.63;;;;;;;14.28;36.63;98108.66;4996248;28;20054;-79
2022/05/16 09:34:53;;;;;;;0.70;0.70;;;;;;;14.38;36.51;98103.16;4652108;28;10000165;-80
2022/05/16 09:37:20;;;;;;;0.65;0.65;;;;;;;15.12;35.95;98119.78;5011968;28;20045;-79
2022/05/16 09:39:49;;;;;;;0.50;0.50;;;;;;;14.76;36.44;98107.81;4994239;28;20045;-81
2022/05/16 09:42:22;;;;;;;0.50;0.50;;;;;;;14.16;36.57;98116.44;5010778;28;20073;-80
2022/05/16 09:45:03;;;;;;;0.50;0.50;;;;;;;13.66;38.20;98135.66;5009895;28;20053;-82
2022/05/16 09:47:32;;;;;;;0.50;0.50;;;;;;;13.31;38.07;98134.88;5011941;28;20046;-81
2022/05/16 09:50:02;;;;;;;0.60;0.60;;;;;;;13.34;38.24;98149.75;5009638;28;20076;-80
2022/05/16 09:52:31;;;;;;;0.57;0.57;;;;;;;13.58;38.15;98139.81;5007690;28;20057;-80
2022/05/16 09:55:01;;;;;;;0.50;0.50;;;;;;;13.56;36.98;98114.09;4992961;28;20049;-80
2022/05/16 09:57:32;;;;;;;1.00;1.00;;;;;;;14.88;35.28;98116.31;5008249;28;20053;-81
2022/05/16 10:00:41;;;;;;;0.98;0.98;;;;;;;16.03;33.02;98113.06;5009652;28;20684;-80
2022/05/16 10:03:29;;;;;;;0.68;0.68;;;;;;;15.70;34.61;98128.63;5000828;28;20057;-81
2022/05/16 10:06:02;;;;;;;0.70;0.70;;;;;;;15.82;33.69;98128.94;5008477;28;20049;-80
2022/05/16 10:08:41;;;;;;;0.60;0.60;;;;;;;16.02;33.62;98119.59;5004958;28;20497;-80
2022/05/16 10:11:13;;;;;;;0.70;0.70;;;;;;;16.11;33.31;98128.69;4998548;28;20145;-80
2022/05/16 10:13:40;;;;;;;1.10;1.10;;;;;;;17.10;32.92;98120.88;5020396;28;20175;-80
2022/05/16 10:16:09;;;;;;;0.50;0.50;;;;;;;17.37;31.17;98109.06;5008463;28;20054;-81
2022/05/16 10:18:45;;;;;;;0.40;0.40;;;;;;;16.25;31.85;98126.78;5003099;28;20050;-79
2022/05/16 10:21:52;;;;;;;0.60;0.60;;;;;;;15.42;32.76;98125.00;4984404;28;20104;-81
2022/05/16 10:24:21;;;;;;;0.60;0.60;;;;;;;15.88;33.00;98126.97;5009798;28;20161;-80
2022/05/16 10:26:50;;;;;;;0.50;0.50;;;;;;;15.82;32.25;98137.09;5001677;28;20247;-81
2022/05/16 10:29:25;;;;;;;0.70;0.70;;;;;;;15.90;32.47;98135.59;5004685;28;20144;-81
2022/05/16 10:35:07;;;;;;;0.40;0.40;;;;;;;13.53;37.68;98141.75;4990305;28;20054;-80
2022/05/16 10:37:38;;;;;;;0.40;0.40;;;;;;;13.01;38.50;98169.22;4985555;28;20053;-81
2022/05/16 10:40:10;;;;;;;0.40;0.40;;;;;;;12.16;41.73;98138.78;5003892;28;20042;-80
2022/05/16 10:43:25;;;;;;;0.50;0.50;;;;;;;12.02;41.35;98157.47;5008972;28;20390;-80
2022/05/16 10:45:57;;;;;;;0.40;0.40;;;;;;;11.95;42.71;98163.19;5006051;28;20144;-81
2022/05/16 10:48:33;;;;;;;0.50;0.50;;;;;;;11.73;44.13;98168.03;4973310;28;20054;-81
2022/05/16 10:51:10;;;;;;;0.47;0.47;;;;;;;11.53;44.65;98155.34;5008903;28;20054;-80
2022/05/16 10:53:41;;;;;;;0.50;0.50;;;;;;;11.61;45.08;98161.00;5010878;28;20460;-79
2022/05/16 10:56:31;;;;;;;1.00;1.00;;;;;;;12.78;43.99;98153.63;5009834;28;20394;-82
2022/05/16 10:59:26;;;;;;;1.13;1.10;;;;;;;15.99;38.98;98150.94;5011586;28;20493;-80
2022/05/16 11:02:08;;;;;;;0.90;0.90;;;;;;;17.60;35.70;98155.38;5009628;28;20508;-80
2022/05/16 11:04:47;;;;;;;0.70;0.70;;;;;;;17.90;34.84;98153.84;5009799;28;20420;-81
2022/05/16 11:07:41;;;;;;;0.50;0.50;;;;;;;15.74;37.89;98143.25;5011213;28;20046;-82
2022/05/16 11:10:10;;;;;;;0.60;0.60;;;;;;;15.04;39.93;98153.06;5012361;28;20061;-82
2022/05/16 11:12:52;;;;;;;1.00;1.00;;;;;;;16.65;37.54;98156.19;4992287;28;20508;-81
2022/05/16 11:15:47;;;;;;;0.90;0.90;;;;;;;19.26;34.00;98141.19;4647250;28;10000191;-82
2022/05/16 11:18:32;;;;;;;;;;;;;;;20.48;32.24;98143.59;5008958;28;20136;-82
2022/05/16 11:21:18;;;;;;;;;;;;;;;20.41;29.52;98135.09;5008059;28;20323;-82
2022/05/16 11:23:56;;;;;;;1.00;1.00;;;;;;;20.88;28.13;98113.84;5010756;28;19952;-83
2022/05/16 11:26:47;;;;;;;1.05;1.05;;;;;;;20.78;26.04;98115.06;5006158;28;20061;-81
2022/05/16 11:29:33;;;;;;;0.40;0.40;;;;;;;19.79;27.01;98122.78;4990815;28;20046;-84
2022/05/16 11:32:09;;;;;;;1.10;1.10;;;;;;;18.09;28.64;98093.56;5008244;28;20049;-81
2022/05/16 11:35:02;;;;;;;0.30;0.30;;;;;;;18.03;29.61;98112.00;5007315;28;20424;-81
2022/05/16 11:37:56;;;;;;;0.30;0.30;;;;;;;16.72;31.24;98107.53;5009527;28;20084;-82
2022/05/16 11:40:31;;;;;;;0.40;0.40;;;;;;;15.99;32.44;98109.31;5007728;28;20130;-82
2022/05/16 11:43:06;;;;;;;0.40;0.40;;;;;;;15.59;33.82;98117.88;4991167;28;20327;-82
2022/05/16 11:46:22;;;;;;;0.40;0.40;;;;;;;14.78;34.36;98127.34;4990655;28;20054;-80
2022/05/16 11:49:02;;;;;;;;;;;;;;;14.14;35.51;98118.63;5006481;28;20060;-80
2022/05/16 11:51:58;;;;;;;0.50;0.50;;;;;;;13.82;36.74;98120.88;5013827;28;19924;-82
2022/05/16 12:01:01;;;;;;;1.08;1.08;;;;;;;19.43;29.92;98097.38;5027146;28;20041;-82
2022/05/16 12:03:38;;;;;;;0.40;0.40;;;;;;;19.13;30.02;98107.41;5029814;28;20046;-82
2022/05/16 12:06:31;;;;;;;0.40;0.40;;;;;;;18.20;31.36;98108.50;5030243;28;20514;-80
2022/05/16 12:09:17;;;;;;;0.35;0.35;;;;;;;16.75;32.76;98112.38;5016403;28;20050;-81
2022/05/16 12:11:51;;;;;;;0.40;0.40;;;;;;;17.17;33.36;98131.38;5029385;28;20507;-82
2022/05/16 12:14:34;;;;;;;0.50;0.50;;;;;;;17.81;32.32;98139.34;5026382;28;20053;-81
2022/05/16 12:17:07;;;;;;;0.50;0.50;;;;;;;18.41;31.41;98136.06;4988844;28;20398;-82
2022/05/16 12:19:39;;;;;;;0.60;0.60;;;;;;;17.83;33.38;98132.47;5017326;28;20052;-82
2022/05/16 12:22:08;;;;;;;0.50;0.50;;;;;;;17.37;33.26;98133.59;5017712;28;20427;-83
2022/05/16 12:25:02;;;;;;;0.40;0.40;;;;;;;16.07;36.25;98122.22;5020561;28;20049;-82
2022/05/16 12:27:35;;;;;;;0.70;0.70;;;;;;;16.45;34.46;98122.81;5003606;28;20559;-83
2022/05/16 12:30:11;;;;;;;0.50;0.50;;;;;;;17.05;34.19;98129.19;5001376;28;20045;-83